createdAt,value
2018-04-24T00:01:40.012Z,16.60
2018-04-24T00:06:43.989Z,16.60
2018-04-24T00:11:48.393Z,16.60
2018-04-24T00:16:52.221Z,16.60
2018-04-24T00:21:57.981Z,16.50
2018-04-24T00:27:02.826Z,16.50
2018-04-24T00:32:08.098Z,16.50
2018-04-24T00:37:16.179Z,16.50
2018-04-24T00:42:21.124Z,16.50
2018-04-24T00:47:26.412Z,16.50
2018-04-24T00:52:29.764Z,16.50
2018-04-24T00:57:32.957Z,16.50
2018-04-24T01:02:37.715Z,16.40
2018-04-24T01:07:41.967Z,16.40
2018-04-24T01:12:46.890Z,16.40
2018-04-24T01:17:50.638Z,16.40
2018-04-24T01:23:03.142Z,16.40
2018-04-24T01:28:09.869Z,16.30
2018-04-24T01:33:17.932Z,16.30
2018-04-24T01:38:21.169Z,16.30
2018-04-24T01:43:27.646Z,16.30
2018-04-24T01:48:33.228Z,16.20
2018-04-24T01:58:46.115Z,16.20
2018-04-24T02:03:49.428Z,16.20
2018-04-24T02:08:54.078Z,16.10
2018-04-24T02:13:59.557Z,16.00
2018-04-24T02:19:03.161Z,16.00
2018-04-24T02:24:06.422Z,16.00
2018-04-24T02:34:22.026Z,15.90
2018-04-24T02:39:25.580Z,15.90
2018-04-24T02:44:30.904Z,15.80
2018-04-24T02:49:34.041Z,15.80
2018-04-24T02:54:37.080Z,15.80
2018-04-24T02:59:42.720Z,15.80
2018-04-24T03:04:53.072Z,15.70
2018-04-24T03:09:59.108Z,15.70
2018-04-24T03:15:02.508Z,15.70
2018-04-24T03:20:08.394Z,15.60
2018-04-24T03:25:14.059Z,15.60
2018-04-24T03:30:19.273Z,15.60
2018-04-24T03:35:25.222Z,15.60
2018-04-24T03:40:29.670Z,15.50
2018-04-24T03:45:32.773Z,15.50
2018-04-24T03:50:36.016Z,15.40
2018-04-24T03:55:42.706Z,15.40
2018-04-24T04:00:46.491Z,15.30
2018-04-24T04:05:52.216Z,15.20
2018-04-24T04:10:55.408Z,15.20
2018-04-24T04:15:58.355Z,15.10
2018-04-24T04:21:13.772Z,15.10
2018-04-24T04:26:18.360Z,15.00
2018-04-24T04:31:21.378Z,14.90
2018-04-24T04:36:24.198Z,14.90
2018-04-24T04:41:27.922Z,14.90
2018-04-24T04:51:40.933Z,14.80
2018-04-24T04:56:44.395Z,14.70
2018-04-24T05:01:47.363Z,14.70
2018-04-24T05:06:53.052Z,14.70
2018-04-24T05:11:56.871Z,14.80
2018-04-24T05:17:00.420Z,14.90
2018-04-24T05:22:03.978Z,14.90
2018-04-24T05:27:07.987Z,15.00
2018-04-24T05:32:11.129Z,15.20
2018-04-24T05:37:14.092Z,15.40
2018-04-24T05:42:20.261Z,15.60
2018-04-24T05:47:23.872Z,15.80
2018-04-24T05:52:26.709Z,16.00
2018-04-24T05:57:29.594Z,16.30
2018-04-24T06:07:39.795Z,16.80
2018-04-24T06:12:42.968Z,17.10
2018-04-24T06:17:46.073Z,17.40
2018-04-24T06:22:51.221Z,17.60
2018-04-24T06:33:02.501Z,18.20
2018-04-24T06:38:06.260Z,18.50
2018-04-24T06:43:09.348Z,18.60
2018-04-24T06:48:13.561Z,18.90
2018-04-24T06:53:16.192Z,19.00
2018-04-24T06:58:18.789Z,19.20
2018-04-24T07:03:21.489Z,19.30
2018-04-24T07:08:24.568Z,19.40
2018-04-24T07:13:28.115Z,19.50
2018-04-24T07:18:31.923Z,19.70
2018-04-24T07:23:35.879Z,20.10
2018-04-24T07:28:39.085Z,20.00
2018-04-24T07:33:42.483Z,20.30
2018-04-24T07:38:49.560Z,20.60
2018-04-24T07:43:54.589Z,20.80
2018-04-24T07:48:57.912Z,21.00
2018-04-24T07:54:02.556Z,21.10
2018-04-24T07:59:07.537Z,21.20
2018-04-24T08:04:12.090Z,21.20
2018-04-24T08:09:15.749Z,21.30
2018-04-24T08:14:20.016Z,21.40
2018-04-24T08:19:22.946Z,21.60
2018-04-24T08:24:27.527Z,21.60
2018-04-24T08:29:31.727Z,21.60
2018-04-24T08:34:34.695Z,21.70
2018-04-24T08:39:39.370Z,21.80
2018-04-24T08:44:43.358Z,21.90
2018-04-24T08:49:46.539Z,22.10
2018-04-24T08:54:49.488Z,22.00
2018-04-24T08:59:52.888Z,22.10
2018-04-24T09:04:55.634Z,22.00
2018-04-24T09:09:58.453Z,22.00
2018-04-24T09:15:01.300Z,22.00
2018-04-24T09:20:04.281Z,22.10
2018-04-24T09:25:07.243Z,22.00
2018-04-24T09:30:10.228Z,22.20
2018-04-24T09:35:18.819Z,22.30
2018-04-24T09:40:21.845Z,22.50
2018-04-24T09:45:26.056Z,22.60
2018-04-24T09:50:30.128Z,22.90
2018-04-24T09:55:33.118Z,23.20
2018-04-24T10:00:40.088Z,23.30
2018-04-24T10:05:43.110Z,23.40
2018-04-24T10:10:47.609Z,23.50
2018-04-24T10:15:52.416Z,23.50
2018-04-24T10:20:55.266Z,23.40
2018-04-24T10:25:58.603Z,23.20
2018-04-24T10:31:02.336Z,23.00
2018-04-24T10:36:06.856Z,23.10
2018-04-24T10:41:11.335Z,23.20
2018-04-24T10:46:14.355Z,23.20
2018-04-24T10:51:17.858Z,23.20
2018-04-24T10:56:22.476Z,23.10
2018-04-24T11:01:25.623Z,23.00
2018-04-24T11:06:32.767Z,23.10
2018-04-24T11:11:37.450Z,23.10
2018-04-24T11:16:40.263Z,23.20
2018-04-24T11:21:43.353Z,23.00
2018-04-24T11:26:46.196Z,22.90
2018-04-24T11:31:48.778Z,22.80
2018-04-24T11:36:52.092Z,22.90
2018-04-24T11:41:55.036Z,23.00
2018-04-24T11:46:58.186Z,23.10
2018-04-24T11:57:08.426Z,23.40
2018-04-24T12:02:12.525Z,23.50
2018-04-24T12:07:15.708Z,23.60
2018-04-24T12:12:19.778Z,23.70
2018-04-24T12:17:23.401Z,23.80
2018-04-24T12:22:29.139Z,24.00
2018-04-24T12:27:32.500Z,24.00
2018-04-24T12:32:35.781Z,24.00
2018-04-24T12:37:39.932Z,24.20
2018-04-24T12:42:43.409Z,24.30
2018-04-24T12:47:46.207Z,24.30
2018-04-24T12:52:49.585Z,24.50
2018-04-24T12:57:53.429Z,24.50
2018-04-24T13:02:58.416Z,24.60
2018-04-24T13:08:01.231Z,24.70
2018-04-24T13:13:05.613Z,24.60
2018-04-24T13:18:08.588Z,24.70
2018-04-24T13:23:12.243Z,24.80
2018-04-24T13:28:15.243Z,24.80
2018-04-24T13:33:19.595Z,24.80
2018-04-24T13:38:23.466Z,24.80
2018-04-24T13:43:26.892Z,24.90
2018-04-24T13:48:29.540Z,25.00
2018-04-24T13:53:35.289Z,25.00
2018-04-24T13:58:39.528Z,24.90
2018-04-24T14:03:44.286Z,24.80
2018-04-24T14:08:47.218Z,24.60
2018-04-24T14:13:50.312Z,24.40
2018-04-24T14:18:53.772Z,24.20
2018-04-24T14:23:56.556Z,24.20
2018-04-24T14:29:02.042Z,24.20
2018-04-24T14:34:04.913Z,24.20
2018-04-24T14:39:09.929Z,24.20
2018-04-24T14:44:13.774Z,24.20
2018-04-24T14:49:17.446Z,24.10
2018-04-24T14:54:20.745Z,24.10
2018-04-24T14:59:26.154Z,24.10
2018-04-24T15:04:31.271Z,24.00
2018-04-24T15:09:34.671Z,23.80
2018-04-24T15:14:38.764Z,23.70
2018-04-24T15:19:42.228Z,23.60
2018-04-24T15:24:47.361Z,23.50
2018-04-24T15:29:51.777Z,23.30
2018-04-24T15:34:54.752Z,23.30
2018-04-24T15:39:57.614Z,23.30
2018-04-24T15:45:00.713Z,23.40
2018-04-24T15:50:04.587Z,23.40
2018-04-24T15:55:08.444Z,23.40
2018-04-24T16:00:11.548Z,23.30
2018-04-24T16:05:15.627Z,23.30
2018-04-24T16:10:19.815Z,23.30
2018-04-24T16:15:24.697Z,23.20
2018-04-24T16:20:30.531Z,23.20
2018-04-24T16:25:33.571Z,23.20
2018-04-24T16:30:37.093Z,23.10
2018-04-24T16:35:42.640Z,23.00
2018-04-24T16:40:48.029Z,23.00
2018-04-24T16:45:51.671Z,22.90
2018-04-24T16:50:54.923Z,22.90
2018-04-24T16:55:58.517Z,22.80
2018-04-24T17:11:16.909Z,22.60
2018-04-24T17:16:22.556Z,22.50
2018-04-24T17:21:25.363Z,22.40
2018-04-24T17:26:29.473Z,22.10
2018-04-24T17:31:32.592Z,22.10
2018-04-24T17:36:35.867Z,22.00
2018-04-24T17:41:40.394Z,21.90
2018-04-24T17:46:43.112Z,21.80
2018-04-24T17:51:46.686Z,21.70
2018-04-24T17:56:50.075Z,21.50
2018-04-24T18:01:53.657Z,21.40
2018-04-24T18:06:57.404Z,21.30
2018-04-24T18:12:02.618Z,21.20
2018-04-24T18:22:14.251Z,20.90
2018-04-24T18:27:19.368Z,20.60
2018-04-24T18:32:24.167Z,20.60
2018-04-24T18:37:28.612Z,20.50
2018-04-24T18:42:33.509Z,20.20
2018-04-24T18:47:40.823Z,20.20
2018-04-24T18:52:46.030Z,19.90
2018-04-24T18:57:52.791Z,19.80
2018-04-24T19:02:56.730Z,19.70
2018-04-24T19:08:06.618Z,19.60
2018-04-24T19:13:10.614Z,19.30
2018-04-24T19:18:13.661Z,19.30
2018-04-24T19:23:16.993Z,19.10
2018-04-24T19:28:22.148Z,18.90
2018-04-24T19:33:31.765Z,18.80
2018-04-24T19:38:35.886Z,18.70
2018-04-24T19:43:39.594Z,18.60
2018-04-24T19:48:50.319Z,18.40
2018-04-24T19:53:53.517Z,18.30
2018-04-24T19:59:04.223Z,18.10
2018-04-24T20:04:10.036Z,18.00
2018-04-24T20:09:13.003Z,17.90
2018-04-24T20:14:17.301Z,17.70
2018-04-24T20:19:21.735Z,17.70
2018-04-24T20:29:33.706Z,17.30
2018-04-24T20:34:38.306Z,17.30
2018-04-24T20:55:10.773Z,16.90
2018-04-24T21:00:17.477Z,16.80
2018-04-24T21:10:28.100Z,16.50
2018-04-24T21:15:34.135Z,16.50
2018-04-24T21:25:50.314Z,16.30
2018-04-24T21:30:56.347Z,16.20
2018-04-24T21:36:01.960Z,16.10
2018-04-24T21:41:07.436Z,16.00
2018-04-24T21:46:13.255Z,15.90
2018-04-24T21:51:19.381Z,15.90
2018-04-24T21:56:27.167Z,15.80
2018-04-24T22:01:31.445Z,15.70
2018-04-24T22:11:43.596Z,15.50
2018-04-24T22:16:49.194Z,15.40
2018-04-24T22:21:57.481Z,15.40
2018-04-24T22:32:09.024Z,15.20
2018-04-24T22:37:12.921Z,15.10
2018-04-24T22:42:21.178Z,15.00
2018-04-24T22:47:26.374Z,15.00
2018-04-24T22:52:34.022Z,14.90
2018-04-24T22:57:37.210Z,14.80
2018-04-24T23:02:44.935Z,14.70
2018-04-24T23:07:50.296Z,14.70
2018-04-24T23:13:06.514Z,14.60
2018-04-24T23:18:24.033Z,14.50
2018-04-24T23:23:28.007Z,14.40
2018-04-24T23:28:33.021Z,14.40
2018-04-24T23:33:40.451Z,14.30
2018-04-24T23:38:45.956Z,14.20
2018-04-24T23:43:52.738Z,14.20
2018-04-24T23:49:00.486Z,14.10
2018-04-24T23:54:08.556Z,14.00
2018-04-24T23:59:13.432Z,13.90
